<?xml version="1.0" encoding="UTF-8" standalone="no" ?>
<gpx xmlns="http://www.topografix.com/GPX/1/1" xmlns:xsi="http://www.w3.org/2001/XMLSchema-instance" xsi:schemaLocation="http://www.topografix.com/GPX/1/1 http://www.topografix.com/GPX/1/1/gpx.xsd" version="1.1" creator="VisuGPX - https://www.visugpx.com">
  <metadata>
    <name>J0 Vienne Hbf - Hotel</name>
  </metadata>
  <trk>
    <name><![CDATA[J0 Vienne Hbf - Hotel]]></name>
    <trkseg>
      <trkpt lat="48.18428" lon="16.37514">
        <ele>296.339858</ele>
        <time>2026-07-06T15:40:49.000Z</time>
      </trkpt>
      <trkpt lat="48.18428" lon="16.37514">
        <ele>296.339858</ele>
        <time>2026-07-06T15:41:10.000Z</time>
      </trkpt>
      <trkpt lat="48.18441" lon="16.37496">
        <ele>296.339858</ele>
        <time>2026-07-06T15:41:11.000Z</time>
      </trkpt>
      <trkpt lat="48.18464" lon="16.3749">
        <ele>296.339858</ele>
        <time>2026-07-06T15:41:15.000Z</time>
      </trkpt>
      <trkpt lat="48.18486" lon="16.37479">
        <ele>296.339858</ele>
        <time>2026-07-06T15:41:19.000Z</time>
      </trkpt>
      <trkpt lat="48.18481" lon="16.3747">
        <ele>296.339858</ele>
        <time>2026-07-06T15:41:20.000Z</time>
      </trkpt>
      <trkpt lat="48.18478" lon="16.37462">
        <ele>296.339858</ele>
        <time>2026-07-06T15:41:21.000Z</time>
      </trkpt>
      <trkpt lat="48.18482" lon="16.37446">
        <ele>296.339858</ele>
        <time>2026-07-06T15:41:26.000Z</time>
      </trkpt>
      <trkpt lat="48.18483" lon="16.37426">
        <ele>290.880257</ele>
        <time>2026-07-06T15:41:29.000Z</time>
      </trkpt>
      <trkpt lat="48.18482" lon="16.37414">
        <ele>287.339934</ele>
        <time>2026-07-06T15:41:31.000Z</time>
      </trkpt>
      <trkpt lat="48.1848" lon="16.37407">
        <ele>285.158298</ele>
        <time>2026-07-06T15:41:32.000Z</time>
      </trkpt>
      <trkpt lat="48.18556" lon="16.37404">
        <ele>252.134813</ele>
        <time>2026-07-06T15:41:57.000Z</time>
      </trkpt>
      <trkpt lat="48.18557" lon="16.37396">
        <ele>249.682244</ele>
        <time>2026-07-06T15:41:58.000Z</time>
      </trkpt>
      <trkpt lat="48.18559" lon="16.37394">
        <ele>248.498659</ele>
        <time>2026-07-06T15:41:59.000Z</time>
      </trkpt>
      <trkpt lat="48.18561" lon="16.37419">
        <ele>241.142829</ele>
        <time>2026-07-06T15:42:19.000Z</time>
      </trkpt>
      <trkpt lat="48.18562" lon="16.37427">
        <ele>238.726338</ele>
        <time>2026-07-06T15:42:21.000Z</time>
      </trkpt>
      <trkpt lat="48.18565" lon="16.37443">
        <ele>233.965092</ele>
        <time>2026-07-06T15:42:26.000Z</time>
      </trkpt>
      <trkpt lat="48.18569" lon="16.37445">
        <ele>232.185453</ele>
        <time>2026-07-06T15:42:28.000Z</time>
      </trkpt>
      <trkpt lat="48.18572" lon="16.37442">
        <ele>230.559719</ele>
        <time>2026-07-06T15:42:29.000Z</time>
      </trkpt>
      <trkpt lat="48.18579" lon="16.37436">
        <ele>227.118874</ele>
        <time>2026-07-06T15:42:32.000Z</time>
      </trkpt>
      <trkpt lat="48.18587" lon="16.37431">
        <ele>223.295473</ele>
        <time>2026-07-06T15:42:35.000Z</time>
      </trkpt>
      <trkpt lat="48.1859" lon="16.37428">
        <ele>221.747869</ele>
        <time>2026-07-06T15:42:36.000Z</time>
      </trkpt>
      <trkpt lat="48.18602" lon="16.37419">
        <ele>217.531506</ele>
        <time>2026-07-06T15:42:40.000Z</time>
      </trkpt>
      <trkpt lat="48.18606" lon="16.37417">
        <ele>217.263191</ele>
        <time>2026-07-06T15:42:43.000Z</time>
      </trkpt>
      <trkpt lat="48.18615" lon="16.37409">
        <ele>216.491549</ele>
        <time>2026-07-06T15:43:09.000Z</time>
      </trkpt>
      <trkpt lat="48.18621" lon="16.37405">
        <ele>216.015862</ele>
        <time>2026-07-06T15:43:12.000Z</time>
      </trkpt>
      <trkpt lat="48.18623" lon="16.37404">
        <ele>215.843876</ele>
        <time>2026-07-06T15:43:15.000Z</time>
      </trkpt>
      <trkpt lat="48.18628" lon="16.374">
        <ele>215.420375</ele>
        <time>2026-07-06T15:43:29.000Z</time>
      </trkpt>
      <trkpt lat="48.18639" lon="16.37398">
        <ele>214.615973</ele>
        <time>2026-07-06T15:43:35.000Z</time>
      </trkpt>
      <trkpt lat="48.18639" lon="16.37398">
        <ele>214.607143</ele>
        <time>2026-07-06T15:43:36.000Z</time>
      </trkpt>
      <trkpt lat="48.18639" lon="16.37398">
        <ele>214.589483</ele>
        <time>2026-07-06T15:43:37.000Z</time>
      </trkpt>
      <trkpt lat="48.18645" lon="16.37396">
        <ele>214.161534</ele>
        <time>2026-07-06T15:44:05.000Z</time>
      </trkpt>
      <trkpt lat="48.18648" lon="16.37393">
        <ele>213.861348</ele>
        <time>2026-07-06T15:44:06.000Z</time>
      </trkpt>
      <trkpt lat="48.18664" lon="16.37387">
        <ele>212.704075</ele>
        <time>2026-07-06T15:44:10.000Z</time>
      </trkpt>
      <trkpt lat="48.18675" lon="16.37385">
        <ele>211.897882</ele>
        <time>2026-07-06T15:44:14.000Z</time>
      </trkpt>
      <trkpt lat="48.1868" lon="16.37383">
        <ele>211.491142</ele>
        <time>2026-07-06T15:44:16.000Z</time>
      </trkpt>
      <trkpt lat="48.18699" lon="16.37375">
        <ele>210.066458</ele>
        <time>2026-07-06T15:44:22.000Z</time>
      </trkpt>
      <trkpt lat="48.187" lon="16.37374">
        <ele>209.939112</ele>
        <time>2026-07-06T15:44:23.000Z</time>
      </trkpt>
      <trkpt lat="48.18706" lon="16.37371">
        <ele>209.496908</ele>
        <time>2026-07-06T15:44:26.000Z</time>
      </trkpt>
      <trkpt lat="48.18714" lon="16.37374">
        <ele>208.857546</ele>
        <time>2026-07-06T15:44:29.000Z</time>
      </trkpt>
      <trkpt lat="48.18716" lon="16.37373">
        <ele>208.690639</ele>
        <time>2026-07-06T15:44:30.000Z</time>
      </trkpt>
      <trkpt lat="48.18718" lon="16.37369">
        <ele>208.49866</ele>
        <time>2026-07-06T15:44:31.000Z</time>
      </trkpt>
      <trkpt lat="48.18717" lon="16.37364">
        <ele>208.221916</ele>
        <time>2026-07-06T15:44:34.000Z</time>
      </trkpt>
      <trkpt lat="48.18715" lon="16.3736">
        <ele>207.960423</ele>
        <time>2026-07-06T15:44:36.000Z</time>
      </trkpt>
      <trkpt lat="48.18709" lon="16.37357">
        <ele>207.50864</ele>
        <time>2026-07-06T15:44:38.000Z</time>
      </trkpt>
      <trkpt lat="48.18705" lon="16.37356">
        <ele>207.239657</ele>
        <time>2026-07-06T15:44:39.000Z</time>
      </trkpt>
      <trkpt lat="48.18699" lon="16.37352">
        <ele>206.718264</ele>
        <time>2026-07-06T15:44:41.000Z</time>
      </trkpt>
      <trkpt lat="48.18695" lon="16.37342">
        <ele>206.163955</ele>
        <time>2026-07-06T15:44:43.000Z</time>
      </trkpt>
      <trkpt lat="48.18691" lon="16.37332">
        <ele>205.576365</ele>
        <time>2026-07-06T15:44:45.000Z</time>
      </trkpt>
      <trkpt lat="48.18687" lon="16.37317">
        <ele>204.80961</ele>
        <time>2026-07-06T15:44:47.000Z</time>
      </trkpt>
      <trkpt lat="48.18685" lon="16.37311">
        <ele>204.711247</ele>
        <time>2026-07-06T15:44:48.000Z</time>
      </trkpt>
      <trkpt lat="48.18681" lon="16.37291">
        <ele>204.865601</ele>
        <time>2026-07-06T15:44:51.000Z</time>
      </trkpt>
      <trkpt lat="48.18682" lon="16.37284">
        <ele>204.91667</ele>
        <time>2026-07-06T15:44:52.000Z</time>
      </trkpt>
      <trkpt lat="48.18681" lon="16.37277">
        <ele>204.964447</ele>
        <time>2026-07-06T15:44:53.000Z</time>
      </trkpt>
      <trkpt lat="48.1868" lon="16.37271">
        <ele>205.014511</ele>
        <time>2026-07-06T15:44:54.000Z</time>
      </trkpt>
      <trkpt lat="48.18677" lon="16.37257">
        <ele>205.115192</ele>
        <time>2026-07-06T15:44:56.000Z</time>
      </trkpt>
      <trkpt lat="48.18675" lon="16.37252">
        <ele>205.160524</ele>
        <time>2026-07-06T15:44:57.000Z</time>
      </trkpt>
      <trkpt lat="48.18673" lon="16.37247">
        <ele>205.206683</ele>
        <time>2026-07-06T15:44:58.000Z</time>
      </trkpt>
      <trkpt lat="48.18668" lon="16.37236">
        <ele>205.302001</ele>
        <time>2026-07-06T15:45:00.000Z</time>
      </trkpt>
      <trkpt lat="48.18667" lon="16.37224">
        <ele>205.391632</ele>
        <time>2026-07-06T15:45:02.000Z</time>
      </trkpt>
      <trkpt lat="48.18665" lon="16.37218">
        <ele>205.437402</ele>
        <time>2026-07-06T15:45:03.000Z</time>
      </trkpt>
      <trkpt lat="48.18663" lon="16.37213">
        <ele>205.482975</ele>
        <time>2026-07-06T15:45:04.000Z</time>
      </trkpt>
      <trkpt lat="48.18652" lon="16.37205">
        <ele>205.614437</ele>
        <time>2026-07-06T15:45:07.000Z</time>
      </trkpt>
      <trkpt lat="48.18638" lon="16.37192">
        <ele>205.799573</ele>
        <time>2026-07-06T15:45:12.000Z</time>
      </trkpt>
      <trkpt lat="48.18629" lon="16.37163">
        <ele>206.025249</ele>
        <time>2026-07-06T15:45:17.000Z</time>
      </trkpt>
      <trkpt lat="48.18626" lon="16.37122">
        <ele>206.324351</ele>
        <time>2026-07-06T15:45:24.000Z</time>
      </trkpt>
      <trkpt lat="48.18612" lon="16.37094">
        <ele>206.581315</ele>
        <time>2026-07-06T15:45:30.000Z</time>
      </trkpt>
      <trkpt lat="48.18607" lon="16.37078">
        <ele>206.596127</ele>
        <time>2026-07-06T15:45:34.000Z</time>
      </trkpt>
      <trkpt lat="48.18605" lon="16.3707">
        <ele>206.547491</ele>
        <time>2026-07-06T15:45:36.000Z</time>
      </trkpt>
      <trkpt lat="48.18602" lon="16.37057">
        <ele>206.470844</ele>
        <time>2026-07-06T15:45:41.000Z</time>
      </trkpt>
      <trkpt lat="48.18597" lon="16.37048">
        <ele>206.401855</ele>
        <time>2026-07-06T15:45:45.000Z</time>
      </trkpt>
      <trkpt lat="48.18595" lon="16.3704">
        <ele>206.352354</ele>
        <time>2026-07-06T15:45:47.000Z</time>
      </trkpt>
      <trkpt lat="48.18589" lon="16.37018">
        <ele>206.213725</ele>
        <time>2026-07-06T15:45:51.000Z</time>
      </trkpt>
      <trkpt lat="48.18575" lon="16.36986">
        <ele>205.991946</ele>
        <time>2026-07-06T15:45:57.000Z</time>
      </trkpt>
      <trkpt lat="48.1857" lon="16.36965">
        <ele>205.864942</ele>
        <time>2026-07-06T15:46:01.000Z</time>
      </trkpt>
      <trkpt lat="48.18558" lon="16.3694">
        <ele>205.681944</ele>
        <time>2026-07-06T15:46:06.000Z</time>
      </trkpt>
      <trkpt lat="48.18542" lon="16.36906">
        <ele>205.446197</ele>
        <time>2026-07-06T15:46:12.000Z</time>
      </trkpt>
      <trkpt lat="48.18538" lon="16.36895">
        <ele>205.370591</ele>
        <time>2026-07-06T15:46:14.000Z</time>
      </trkpt>
      <trkpt lat="48.18532" lon="16.36878">
        <ele>205.260292</ele>
        <time>2026-07-06T15:46:16.000Z</time>
      </trkpt>
      <trkpt lat="48.18528" lon="16.36861">
        <ele>205.157693</ele>
        <time>2026-07-06T15:46:18.000Z</time>
      </trkpt>
      <trkpt lat="48.18511" lon="16.36823">
        <ele>204.685386</ele>
        <time>2026-07-06T15:46:24.000Z</time>
      </trkpt>
      <trkpt lat="48.1851" lon="16.36817">
        <ele>204.60951</ele>
        <time>2026-07-06T15:46:25.000Z</time>
      </trkpt>
      <trkpt lat="48.18509" lon="16.36811">
        <ele>204.527767</ele>
        <time>2026-07-06T15:46:26.000Z</time>
      </trkpt>
      <trkpt lat="48.18502" lon="16.36795">
        <ele>204.294859</ele>
        <time>2026-07-06T15:46:29.000Z</time>
      </trkpt>
      <trkpt lat="48.18493" lon="16.36771">
        <ele>203.961635</ele>
        <time>2026-07-06T15:46:33.000Z</time>
      </trkpt>
      <trkpt lat="48.18488" lon="16.36761">
        <ele>203.809401</ele>
        <time>2026-07-06T15:46:35.000Z</time>
      </trkpt>
      <trkpt lat="48.18479" lon="16.3674">
        <ele>203.498942</ele>
        <time>2026-07-06T15:46:39.000Z</time>
      </trkpt>
      <trkpt lat="48.18474" lon="16.36728">
        <ele>203.331522</ele>
        <time>2026-07-06T15:46:41.000Z</time>
      </trkpt>
      <trkpt lat="48.18472" lon="16.36722">
        <ele>203.245882</ele>
        <time>2026-07-06T15:46:42.000Z</time>
      </trkpt>
      <trkpt lat="48.18463" lon="16.36704">
        <ele>202.9686</ele>
        <time>2026-07-06T15:46:45.000Z</time>
      </trkpt>
      <trkpt lat="48.18456" lon="16.36686">
        <ele>202.728889</ele>
        <time>2026-07-06T15:46:48.000Z</time>
      </trkpt>
      <trkpt lat="48.18455" lon="16.3668">
        <ele>202.646685</ele>
        <time>2026-07-06T15:46:49.000Z</time>
      </trkpt>
      <trkpt lat="48.18452" lon="16.36674">
        <ele>202.557306</ele>
        <time>2026-07-06T15:46:50.000Z</time>
      </trkpt>
      <trkpt lat="48.18449" lon="16.36662">
        <ele>202.395838</ele>
        <time>2026-07-06T15:46:52.000Z</time>
      </trkpt>
      <trkpt lat="48.18444" lon="16.36649">
        <ele>202.221218</ele>
        <time>2026-07-06T15:46:54.000Z</time>
      </trkpt>
      <trkpt lat="48.18442" lon="16.36644">
        <ele>202.140043</ele>
        <time>2026-07-06T15:46:55.000Z</time>
      </trkpt>
      <trkpt lat="48.18438" lon="16.36633">
        <ele>201.991859</ele>
        <time>2026-07-06T15:46:57.000Z</time>
      </trkpt>
      <trkpt lat="48.18436" lon="16.36628">
        <ele>201.91683</ele>
        <time>2026-07-06T15:46:58.000Z</time>
      </trkpt>
      <trkpt lat="48.18435" lon="16.36622">
        <ele>201.842108</ele>
        <time>2026-07-06T15:46:59.000Z</time>
      </trkpt>
      <trkpt lat="48.18426" lon="16.36598">
        <ele>202.400439</ele>
        <time>2026-07-06T15:47:03.000Z</time>
      </trkpt>
      <trkpt lat="48.18416" lon="16.36565">
        <ele>203.32166</ele>
        <time>2026-07-06T15:47:08.000Z</time>
      </trkpt>
      <trkpt lat="48.18412" lon="16.36555">
        <ele>203.644724</ele>
        <time>2026-07-06T15:47:10.000Z</time>
      </trkpt>
      <trkpt lat="48.18407" lon="16.36543">
        <ele>204.006026</ele>
        <time>2026-07-06T15:47:12.000Z</time>
      </trkpt>
      <trkpt lat="48.18399" lon="16.36524">
        <ele>204.560158</ele>
        <time>2026-07-06T15:47:15.000Z</time>
      </trkpt>
      <trkpt lat="48.1839" lon="16.365">
        <ele>205.267018</ele>
        <time>2026-07-06T15:47:19.000Z</time>
      </trkpt>
      <trkpt lat="48.18386" lon="16.36489">
        <ele>205.594938</ele>
        <time>2026-07-06T15:47:21.000Z</time>
      </trkpt>
      <trkpt lat="48.18377" lon="16.36468">
        <ele>206.226477</ele>
        <time>2026-07-06T15:47:25.000Z</time>
      </trkpt>
      <trkpt lat="48.18372" lon="16.36454">
        <ele>206.619543</ele>
        <time>2026-07-06T15:47:27.000Z</time>
      </trkpt>
      <trkpt lat="48.18367" lon="16.36442">
        <ele>206.978749</ele>
        <time>2026-07-06T15:47:29.000Z</time>
      </trkpt>
      <trkpt lat="48.18361" lon="16.36431">
        <ele>207.358512</ele>
        <time>2026-07-06T15:47:31.000Z</time>
      </trkpt>
      <trkpt lat="48.18359" lon="16.36417">
        <ele>207.728731</ele>
        <time>2026-07-06T15:47:33.000Z</time>
      </trkpt>
      <trkpt lat="48.18357" lon="16.3641">
        <ele>207.912364</ele>
        <time>2026-07-06T15:47:34.000Z</time>
      </trkpt>
      <trkpt lat="48.1835" lon="16.36395">
        <ele>208.37781</ele>
        <time>2026-07-06T15:47:37.000Z</time>
      </trkpt>
      <trkpt lat="48.18351" lon="16.36389">
        <ele>208.544888</ele>
        <time>2026-07-06T15:47:39.000Z</time>
      </trkpt>
      <trkpt lat="48.18351" lon="16.36387">
        <ele>208.588312</ele>
        <time>2026-07-06T15:47:40.000Z</time>
      </trkpt>
      <trkpt lat="48.18353" lon="16.36386">
        <ele>208.662614</ele>
        <time>2026-07-06T15:47:42.000Z</time>
      </trkpt>
      <trkpt lat="48.18352" lon="16.36381">
        <ele>208.665201</ele>
        <time>2026-07-06T15:47:44.000Z</time>
      </trkpt>
      <trkpt lat="48.18343" lon="16.36357">
        <ele>208.49709</ele>
        <time>2026-07-06T15:47:49.000Z</time>
      </trkpt>
      <trkpt lat="48.18339" lon="16.36346">
        <ele>208.417622</ele>
        <time>2026-07-06T15:47:51.000Z</time>
      </trkpt>
      <trkpt lat="48.18334" lon="16.36323">
        <ele>208.271577</ele>
        <time>2026-07-06T15:47:55.000Z</time>
      </trkpt>
      <trkpt lat="48.18321" lon="16.36287">
        <ele>208.017899</ele>
        <time>2026-07-06T15:48:02.000Z</time>
      </trkpt>
      <trkpt lat="48.18312" lon="16.36259">
        <ele>207.826579</ele>
        <time>2026-07-06T15:48:07.000Z</time>
      </trkpt>
      <trkpt lat="48.18304" lon="16.36245">
        <ele>207.710502</ele>
        <time>2026-07-06T15:48:10.000Z</time>
      </trkpt>
      <trkpt lat="48.18303" lon="16.3623">
        <ele>207.615051</ele>
        <time>2026-07-06T15:48:14.000Z</time>
      </trkpt>
      <trkpt lat="48.18302" lon="16.36227">
        <ele>207.596908</ele>
        <time>2026-07-06T15:48:15.000Z</time>
      </trkpt>
      <trkpt lat="48.18298" lon="16.36224">
        <ele>207.5585</ele>
        <time>2026-07-06T15:48:17.000Z</time>
      </trkpt>
      <trkpt lat="48.18297" lon="16.36222">
        <ele>207.540966</ele>
        <time>2026-07-06T15:48:18.000Z</time>
      </trkpt>
      <trkpt lat="48.18292" lon="16.36209">
        <ele>207.448842</ele>
        <time>2026-07-06T15:48:21.000Z</time>
      </trkpt>
      <trkpt lat="48.18282" lon="16.36183">
        <ele>207.264138</ele>
        <time>2026-07-06T15:48:26.000Z</time>
      </trkpt>
      <trkpt lat="48.18279" lon="16.36171">
        <ele>207.182763</ele>
        <time>2026-07-06T15:48:28.000Z</time>
      </trkpt>
      <trkpt lat="48.1827" lon="16.36152">
        <ele>207.037485</ele>
        <time>2026-07-06T15:48:31.000Z</time>
      </trkpt>
      <trkpt lat="48.18267" lon="16.36145">
        <ele>207.196056</ele>
        <time>2026-07-06T15:48:32.000Z</time>
      </trkpt>
      <trkpt lat="48.18266" lon="16.36136">
        <ele>207.464138</ele>
        <time>2026-07-06T15:48:34.000Z</time>
      </trkpt>
      <trkpt lat="48.18265" lon="16.36133">
        <ele>207.558197</ele>
        <time>2026-07-06T15:48:35.000Z</time>
      </trkpt>
      <trkpt lat="48.18262" lon="16.36126">
        <ele>207.80542</ele>
        <time>2026-07-06T15:48:38.000Z</time>
      </trkpt>
      <trkpt lat="48.18261" lon="16.36123">
        <ele>207.894678</ele>
        <time>2026-07-06T15:48:39.000Z</time>
      </trkpt>
      <trkpt lat="48.18253" lon="16.361">
        <ele>208.65906</ele>
        <time>2026-07-06T15:48:44.000Z</time>
      </trkpt>
      <trkpt lat="48.18252" lon="16.36094">
        <ele>208.851773</ele>
        <time>2026-07-06T15:48:45.000Z</time>
      </trkpt>
      <trkpt lat="48.18246" lon="16.36074">
        <ele>209.458354</ele>
        <time>2026-07-06T15:48:48.000Z</time>
      </trkpt>
      <trkpt lat="48.18243" lon="16.36068">
        <ele>209.681072</ele>
        <time>2026-07-06T15:48:49.000Z</time>
      </trkpt>
      <trkpt lat="48.18235" lon="16.36056">
        <ele>210.170135</ele>
        <time>2026-07-06T15:48:52.000Z</time>
      </trkpt>
      <trkpt lat="48.18239" lon="16.36043">
        <ele>210.586269</ele>
        <time>2026-07-06T15:48:56.000Z</time>
      </trkpt>
      <trkpt lat="48.18243" lon="16.36032">
        <ele>210.968461</ele>
        <time>2026-07-06T15:48:59.000Z</time>
      </trkpt>
      <trkpt lat="48.18245" lon="16.36028">
        <ele>211.09989</ele>
        <time>2026-07-06T15:49:00.000Z</time>
      </trkpt>
      <trkpt lat="48.18253" lon="16.3602">
        <ele>211.501671</ele>
        <time>2026-07-06T15:49:03.000Z</time>
      </trkpt>
      <trkpt lat="48.18255" lon="16.36018">
        <ele>211.621851</ele>
        <time>2026-07-06T15:49:05.000Z</time>
      </trkpt>
      <trkpt lat="48.18255" lon="16.36018">
        <ele>211.621851</ele>
        <time>2026-07-06T15:49:07.000Z</time>
      </trkpt>
      <trkpt lat="48.18263" lon="16.36014">
        <ele>211.992593</ele>
        <time>2026-07-06T15:50:19.000Z</time>
      </trkpt>
      <trkpt lat="48.18267" lon="16.36012">
        <ele>212.16584</ele>
        <time>2026-07-06T15:50:20.000Z</time>
      </trkpt>
      <trkpt lat="48.18278" lon="16.35998">
        <ele>212.80977</ele>
        <time>2026-07-06T15:50:23.000Z</time>
      </trkpt>
      <trkpt lat="48.18287" lon="16.35989">
        <ele>213.248125</ele>
        <time>2026-07-06T15:50:25.000Z</time>
      </trkpt>
      <trkpt lat="48.18293" lon="16.35984">
        <ele>213.569771</ele>
        <time>2026-07-06T15:50:27.000Z</time>
      </trkpt>
      <trkpt lat="48.18297" lon="16.35979">
        <ele>213.780264</ele>
        <time>2026-07-06T15:50:28.000Z</time>
      </trkpt>
      <trkpt lat="48.18305" lon="16.35967">
        <ele>214.293684</ele>
        <time>2026-07-06T15:50:30.000Z</time>
      </trkpt>
      <trkpt lat="48.18315" lon="16.35954">
        <ele>214.845737</ele>
        <time>2026-07-06T15:50:32.000Z</time>
      </trkpt>
      <trkpt lat="48.18325" lon="16.35945">
        <ele>214.989237</ele>
        <time>2026-07-06T15:50:34.000Z</time>
      </trkpt>
      <trkpt lat="48.18335" lon="16.35934">
        <ele>215.150639</ele>
        <time>2026-07-06T15:50:36.000Z</time>
      </trkpt>
      <trkpt lat="48.1834" lon="16.35927">
        <ele>215.22956</ele>
        <time>2026-07-06T15:50:37.000Z</time>
      </trkpt>
      <trkpt lat="48.18354" lon="16.35912">
        <ele>215.451481</ele>
        <time>2026-07-06T15:50:40.000Z</time>
      </trkpt>
      <trkpt lat="48.18368" lon="16.35894">
        <ele>215.686447</ele>
        <time>2026-07-06T15:50:43.000Z</time>
      </trkpt>
      <trkpt lat="48.18378" lon="16.3588">
        <ele>215.855359</ele>
        <time>2026-07-06T15:50:45.000Z</time>
      </trkpt>
      <trkpt lat="48.18389" lon="16.3587">
        <ele>216.017044</ele>
        <time>2026-07-06T15:50:47.000Z</time>
      </trkpt>
      <trkpt lat="48.18398" lon="16.35861">
        <ele>216.16175</ele>
        <time>2026-07-06T15:50:49.000Z</time>
      </trkpt>
      <trkpt lat="48.18404" lon="16.35855">
        <ele>216.247557</ele>
        <time>2026-07-06T15:50:50.000Z</time>
      </trkpt>
      <trkpt lat="48.18411" lon="16.35845">
        <ele>216.37094</ele>
        <time>2026-07-06T15:50:52.000Z</time>
      </trkpt>
      <trkpt lat="48.18416" lon="16.3584">
        <ele>216.445123</ele>
        <time>2026-07-06T15:50:53.000Z</time>
      </trkpt>
      <trkpt lat="48.18427" lon="16.35831">
        <ele>216.59847</ele>
        <time>2026-07-06T15:50:55.000Z</time>
      </trkpt>
      <trkpt lat="48.18432" lon="16.35825">
        <ele>216.678216</ele>
        <time>2026-07-06T15:50:56.000Z</time>
      </trkpt>
      <trkpt lat="48.18436" lon="16.35819">
        <ele>216.754957</ele>
        <time>2026-07-06T15:50:57.000Z</time>
      </trkpt>
      <trkpt lat="48.18444" lon="16.35807">
        <ele>216.896951</ele>
        <time>2026-07-06T15:50:59.000Z</time>
      </trkpt>
      <trkpt lat="48.18449" lon="16.35802">
        <ele>216.97333</ele>
        <time>2026-07-06T15:51:00.000Z</time>
      </trkpt>
      <trkpt lat="48.18454" lon="16.35797">
        <ele>217.046473</ele>
        <time>2026-07-06T15:51:01.000Z</time>
      </trkpt>
      <trkpt lat="48.18464" lon="16.35788">
        <ele>216.883529</ele>
        <time>2026-07-06T15:51:03.000Z</time>
      </trkpt>
      <trkpt lat="48.18467" lon="16.35784">
        <ele>216.717653</ele>
        <time>2026-07-06T15:51:04.000Z</time>
      </trkpt>
      <trkpt lat="48.1847" lon="16.3578">
        <ele>216.589459</ele>
        <time>2026-07-06T15:51:05.000Z</time>
      </trkpt>
      <trkpt lat="48.18473" lon="16.35773">
        <ele>216.388563</ele>
        <time>2026-07-06T15:51:07.000Z</time>
      </trkpt>
      <trkpt lat="48.18476" lon="16.35768">
        <ele>216.224157</ele>
        <time>2026-07-06T15:51:12.000Z</time>
      </trkpt>
      <trkpt lat="48.18483" lon="16.35764">
        <ele>215.966501</ele>
        <time>2026-07-06T15:51:29.000Z</time>
      </trkpt>
      <trkpt lat="48.18489" lon="16.35761">
        <ele>215.737129</ele>
        <time>2026-07-06T15:51:32.000Z</time>
      </trkpt>
      <trkpt lat="48.185" lon="16.35744">
        <ele>215.171479</ele>
        <time>2026-07-06T15:51:36.000Z</time>
      </trkpt>
      <trkpt lat="48.18503" lon="16.35739">
        <ele>215.012122</ele>
        <time>2026-07-06T15:51:37.000Z</time>
      </trkpt>
      <trkpt lat="48.18513" lon="16.35731">
        <ele>214.618706</ele>
        <time>2026-07-06T15:51:39.000Z</time>
      </trkpt>
      <trkpt lat="48.18518" lon="16.35727">
        <ele>214.403516</ele>
        <time>2026-07-06T15:51:40.000Z</time>
      </trkpt>
      <trkpt lat="48.18527" lon="16.35721">
        <ele>214.056798</ele>
        <time>2026-07-06T15:51:42.000Z</time>
      </trkpt>
      <trkpt lat="48.18537" lon="16.35717">
        <ele>213.685103</ele>
        <time>2026-07-06T15:51:44.000Z</time>
      </trkpt>
      <trkpt lat="48.18541" lon="16.35713">
        <ele>213.511997</ele>
        <time>2026-07-06T15:51:45.000Z</time>
      </trkpt>
      <trkpt lat="48.18547" lon="16.35697">
        <ele>213.089146</ele>
        <time>2026-07-06T15:51:47.000Z</time>
      </trkpt>
      <trkpt lat="48.18551" lon="16.3569">
        <ele>212.880058</ele>
        <time>2026-07-06T15:51:48.000Z</time>
      </trkpt>
      <trkpt lat="48.18556" lon="16.35686">
        <ele>212.673514</ele>
        <time>2026-07-06T15:51:49.000Z</time>
      </trkpt>
      <trkpt lat="48.18572" lon="16.35669">
        <ele>211.969244</ele>
        <time>2026-07-06T15:51:51.000Z</time>
      </trkpt>
      <trkpt lat="48.18577" lon="16.35663">
        <ele>211.727005</ele>
        <time>2026-07-06T15:51:52.000Z</time>
      </trkpt>
      <trkpt lat="48.18598" lon="16.35641">
        <ele>210.821909</ele>
        <time>2026-07-06T15:51:57.000Z</time>
      </trkpt>
      <trkpt lat="48.18603" lon="16.35636">
        <ele>210.526425</ele>
        <time>2026-07-06T15:51:58.000Z</time>
      </trkpt>
      <trkpt lat="48.18619" lon="16.35613">
        <ele>209.255182</ele>
        <time>2026-07-06T15:52:02.000Z</time>
      </trkpt>
      <trkpt lat="48.18622" lon="16.3561">
        <ele>209.04445</ele>
        <time>2026-07-06T15:52:03.000Z</time>
      </trkpt>
      <trkpt lat="48.18633" lon="16.356">
        <ele>208.288611</ele>
        <time>2026-07-06T15:52:07.000Z</time>
      </trkpt>
      <trkpt lat="48.18646" lon="16.35582">
        <ele>207.244286</ele>
        <time>2026-07-06T15:52:11.000Z</time>
      </trkpt>
      <trkpt lat="48.18653" lon="16.35571">
        <ele>206.660073</ele>
        <time>2026-07-06T15:52:13.000Z</time>
      </trkpt>
      <trkpt lat="48.18662" lon="16.35561">
        <ele>206.024172</ele>
        <time>2026-07-06T15:52:15.000Z</time>
      </trkpt>
      <trkpt lat="48.18671" lon="16.35553">
        <ele>205.421555</ele>
        <time>2026-07-06T15:52:17.000Z</time>
      </trkpt>
      <trkpt lat="48.18678" lon="16.35542">
        <ele>204.82497</ele>
        <time>2026-07-06T15:52:19.000Z</time>
      </trkpt>
      <trkpt lat="48.18682" lon="16.35536">
        <ele>204.509348</ele>
        <time>2026-07-06T15:52:20.000Z</time>
      </trkpt>
      <trkpt lat="48.18686" lon="16.35531">
        <ele>204.197412</ele>
        <time>2026-07-06T15:52:21.000Z</time>
      </trkpt>
      <trkpt lat="48.18694" lon="16.35523">
        <ele>203.621412</ele>
        <time>2026-07-06T15:52:23.000Z</time>
      </trkpt>
      <trkpt lat="48.18702" lon="16.35514">
        <ele>203.020535</ele>
        <time>2026-07-06T15:52:25.000Z</time>
      </trkpt>
      <trkpt lat="48.18707" lon="16.35506">
        <ele>202.587747</ele>
        <time>2026-07-06T15:52:27.000Z</time>
      </trkpt>
      <trkpt lat="48.1871" lon="16.35503">
        <ele>202.38404</ele>
        <time>2026-07-06T15:52:28.000Z</time>
      </trkpt>
      <trkpt lat="48.18715" lon="16.35499">
        <ele>202.040177</ele>
        <time>2026-07-06T15:52:31.000Z</time>
      </trkpt>
      <trkpt lat="48.18719" lon="16.3549">
        <ele>201.6371</ele>
        <time>2026-07-06T15:52:34.000Z</time>
      </trkpt>
      <trkpt lat="48.18718" lon="16.35485">
        <ele>201.45446</ele>
        <time>2026-07-06T15:52:35.000Z</time>
      </trkpt>
      <trkpt lat="48.18715" lon="16.35473">
        <ele>200.958726</ele>
        <time>2026-07-06T15:52:37.000Z</time>
      </trkpt>
      <trkpt lat="48.18707" lon="16.3546">
        <ele>200.247687</ele>
        <time>2026-07-06T15:52:39.000Z</time>
      </trkpt>
      <trkpt lat="48.18701" lon="16.35447">
        <ele>199.825341</ele>
        <time>2026-07-06T15:52:41.000Z</time>
      </trkpt>
      <trkpt lat="48.18694" lon="16.3543">
        <ele>199.304235</ele>
        <time>2026-07-06T15:52:44.000Z</time>
      </trkpt>
      <trkpt lat="48.18692" lon="16.35423">
        <ele>199.124527</ele>
        <time>2026-07-06T15:52:45.000Z</time>
      </trkpt>
      <trkpt lat="48.18686" lon="16.35405">
        <ele>198.597806</ele>
        <time>2026-07-06T15:52:48.000Z</time>
      </trkpt>
      <trkpt lat="48.1868" lon="16.35388">
        <ele>198.095649</ele>
        <time>2026-07-06T15:52:50.000Z</time>
      </trkpt>
      <trkpt lat="48.18678" lon="16.35382">
        <ele>197.928597</ele>
        <time>2026-07-06T15:52:52.000Z</time>
      </trkpt>
      <trkpt lat="48.18673" lon="16.35371">
        <ele>197.599292</ele>
        <time>2026-07-06T15:52:54.000Z</time>
      </trkpt>
      <trkpt lat="48.18669" lon="16.35362">
        <ele>197.32168</ele>
        <time>2026-07-06T15:52:56.000Z</time>
      </trkpt>
      <trkpt lat="48.18664" lon="16.35349">
        <ele>196.918036</ele>
        <time>2026-07-06T15:52:58.000Z</time>
      </trkpt>
      <trkpt lat="48.18658" lon="16.35336">
        <ele>196.510257</ele>
        <time>2026-07-06T15:53:01.000Z</time>
      </trkpt>
      <trkpt lat="48.18655" lon="16.35326">
        <ele>196.243818</ele>
        <time>2026-07-06T15:53:03.000Z</time>
      </trkpt>
      <trkpt lat="48.18659" lon="16.35321">
        <ele>196.054316</ele>
        <time>2026-07-06T15:53:05.000Z</time>
      </trkpt>
      <trkpt lat="48.18659" lon="16.3532">
        <ele>196.030912</ele>
        <time>2026-07-06T15:53:08.000Z</time>
      </trkpt>
      <trkpt lat="48.18662" lon="16.35317">
        <ele>195.892394</ele>
        <time>2026-07-06T15:53:12.000Z</time>
      </trkpt>
      <trkpt lat="48.18665" lon="16.35312">
        <ele>195.706427</ele>
        <time>2026-07-06T15:53:14.000Z</time>
      </trkpt>
      <trkpt lat="48.1867" lon="16.35304">
        <ele>195.426185</ele>
        <time>2026-07-06T15:53:16.000Z</time>
      </trkpt>
      <trkpt lat="48.18674" lon="16.35301">
        <ele>195.255326</ele>
        <time>2026-07-06T15:53:17.000Z</time>
      </trkpt>
      <trkpt lat="48.18687" lon="16.35288">
        <ele>194.664851</ele>
        <time>2026-07-06T15:53:20.000Z</time>
      </trkpt>
      <trkpt lat="48.18692" lon="16.35282">
        <ele>194.415527</ele>
        <time>2026-07-06T15:53:21.000Z</time>
      </trkpt>
      <trkpt lat="48.18697" lon="16.35278">
        <ele>194.192488</ele>
        <time>2026-07-06T15:53:22.000Z</time>
      </trkpt>
      <trkpt lat="48.18714" lon="16.35269">
        <ele>193.487975</ele>
        <time>2026-07-06T15:53:25.000Z</time>
      </trkpt>
      <trkpt lat="48.18724" lon="16.35259">
        <ele>193.889066</ele>
        <time>2026-07-06T15:53:27.000Z</time>
      </trkpt>
      <trkpt lat="48.18733" lon="16.35248">
        <ele>195.320653</ele>
        <time>2026-07-06T15:53:29.000Z</time>
      </trkpt>
      <trkpt lat="48.18743" lon="16.35239">
        <ele>196.720529</ele>
        <time>2026-07-06T15:53:31.000Z</time>
      </trkpt>
      <trkpt lat="48.18753" lon="16.3523">
        <ele>198.073318</ele>
        <time>2026-07-06T15:53:33.000Z</time>
      </trkpt>
      <trkpt lat="48.18757" lon="16.35226">
        <ele>198.703185</ele>
        <time>2026-07-06T15:53:34.000Z</time>
      </trkpt>
      <trkpt lat="48.18769" lon="16.35214">
        <ele>200.438003</ele>
        <time>2026-07-06T15:53:38.000Z</time>
      </trkpt>
      <trkpt lat="48.1877" lon="16.35212">
        <ele>200.646238</ele>
        <time>2026-07-06T15:53:40.000Z</time>
      </trkpt>
      <trkpt lat="48.1877" lon="16.35212">
        <ele>200.646238</ele>
        <time>2026-07-06T15:53:41.000Z</time>
      </trkpt>
      <trkpt lat="48.18773" lon="16.35207">
        <ele>201.191281</ele>
        <time>2026-07-06T15:54:06.000Z</time>
      </trkpt>
      <trkpt lat="48.18776" lon="16.35208">
        <ele>201.504216</ele>
        <time>2026-07-06T15:54:07.000Z</time>
      </trkpt>
      <trkpt lat="48.18779" lon="16.35208">
        <ele>201.830339</ele>
        <time>2026-07-06T15:54:08.000Z</time>
      </trkpt>
      <trkpt lat="48.18803" lon="16.35203">
        <ele>204.738631</ele>
        <time>2026-07-06T15:54:13.000Z</time>
      </trkpt>
      <trkpt lat="48.18818" lon="16.35185">
        <ele>207.114205</ele>
        <time>2026-07-06T15:54:18.000Z</time>
      </trkpt>
      <trkpt lat="48.18829" lon="16.3518">
        <ele>208.435993</ele>
        <time>2026-07-06T15:54:20.000Z</time>
      </trkpt>
      <trkpt lat="48.18841" lon="16.35178">
        <ele>209.864319</ele>
        <time>2026-07-06T15:54:22.000Z</time>
      </trkpt>
      <trkpt lat="48.18846" lon="16.35176">
        <ele>210.511624</ele>
        <time>2026-07-06T15:54:23.000Z</time>
      </trkpt>
      <trkpt lat="48.18855" lon="16.35171">
        <ele>211.639929</ele>
        <time>2026-07-06T15:54:25.000Z</time>
      </trkpt>
      <trkpt lat="48.18859" lon="16.35169">
        <ele>212.242072</ele>
        <time>2026-07-06T15:54:26.000Z</time>
      </trkpt>
      <trkpt lat="48.18869" lon="16.35163">
        <ele>213.508426</ele>
        <time>2026-07-06T15:54:28.000Z</time>
      </trkpt>
      <trkpt lat="48.18879" lon="16.35156">
        <ele>214.767966</ele>
        <time>2026-07-06T15:54:30.000Z</time>
      </trkpt>
      <trkpt lat="48.18888" lon="16.35156">
        <ele>214.129124</ele>
        <time>2026-07-06T15:54:32.000Z</time>
      </trkpt>
      <trkpt lat="48.18908" lon="16.35151">
        <ele>212.340304</ele>
        <time>2026-07-06T15:54:36.000Z</time>
      </trkpt>
      <trkpt lat="48.18917" lon="16.35146">
        <ele>211.456251</ele>
        <time>2026-07-06T15:54:38.000Z</time>
      </trkpt>
      <trkpt lat="48.18924" lon="16.35144">
        <ele>210.814338</ele>
        <time>2026-07-06T15:54:41.000Z</time>
      </trkpt>
      <trkpt lat="48.18926" lon="16.35141">
        <ele>210.536356</ele>
        <time>2026-07-06T15:54:44.000Z</time>
      </trkpt>
      <trkpt lat="48.18926" lon="16.35141">
        <ele>210.500644</ele>
        <time>2026-07-06T15:54:46.000Z</time>
      </trkpt>
      <trkpt lat="48.18933" lon="16.35141">
        <ele>209.920324</ele>
        <time>2026-07-06T15:55:10.000Z</time>
      </trkpt>
      <trkpt lat="48.18949" lon="16.35136">
        <ele>208.492139</ele>
        <time>2026-07-06T15:55:14.000Z</time>
      </trkpt>
      <trkpt lat="48.18968" lon="16.35127">
        <ele>206.716276</ele>
        <time>2026-07-06T15:55:19.000Z</time>
      </trkpt>
      <trkpt lat="48.18997" lon="16.35116">
        <ele>203.989346</ele>
        <time>2026-07-06T15:55:27.000Z</time>
      </trkpt>
      <trkpt lat="48.1902" lon="16.35099">
        <ele>201.710184</ele>
        <time>2026-07-06T15:55:33.000Z</time>
      </trkpt>
      <trkpt lat="48.19028" lon="16.35095">
        <ele>200.945029</ele>
        <time>2026-07-06T15:55:35.000Z</time>
      </trkpt>
      <trkpt lat="48.19037" lon="16.3509">
        <ele>200.146481</ele>
        <time>2026-07-06T15:55:39.000Z</time>
      </trkpt>
      <trkpt lat="48.19037" lon="16.3509">
        <ele>200.106553</ele>
        <time>2026-07-06T15:55:41.000Z</time>
      </trkpt>
      <trkpt lat="48.19042" lon="16.35085">
        <ele>199.585968</ele>
        <time>2026-07-06T15:56:18.000Z</time>
      </trkpt>
      <trkpt lat="48.19044" lon="16.35084">
        <ele>199.383863</ele>
        <time>2026-07-06T15:56:19.000Z</time>
      </trkpt>
      <trkpt lat="48.19056" lon="16.35076">
        <ele>198.731234</ele>
        <time>2026-07-06T15:56:23.000Z</time>
      </trkpt>
      <trkpt lat="48.19062" lon="16.35069">
        <ele>198.631249</ele>
        <time>2026-07-06T15:56:25.000Z</time>
      </trkpt>
      <trkpt lat="48.19072" lon="16.35056">
        <ele>198.466777</ele>
        <time>2026-07-06T15:56:28.000Z</time>
      </trkpt>
      <trkpt lat="48.19075" lon="16.35051">
        <ele>198.408203</ele>
        <time>2026-07-06T15:56:29.000Z</time>
      </trkpt>
      <trkpt lat="48.19087" lon="16.35034">
        <ele>198.202917</ele>
        <time>2026-07-06T15:56:33.000Z</time>
      </trkpt>
      <trkpt lat="48.19089" lon="16.35029">
        <ele>198.150485</ele>
        <time>2026-07-06T15:56:34.000Z</time>
      </trkpt>
      <trkpt lat="48.19101" lon="16.35014">
        <ele>197.956042</ele>
        <time>2026-07-06T15:56:38.000Z</time>
      </trkpt>
      <trkpt lat="48.19113" lon="16.35003">
        <ele>197.774943</ele>
        <time>2026-07-06T15:56:42.000Z</time>
      </trkpt>
      <trkpt lat="48.19127" lon="16.34983">
        <ele>197.530516</ele>
        <time>2026-07-06T15:56:47.000Z</time>
      </trkpt>
      <trkpt lat="48.19146" lon="16.34957">
        <ele>197.20649</ele>
        <time>2026-07-06T15:56:54.000Z</time>
      </trkpt>
      <trkpt lat="48.19161" lon="16.34934">
        <ele>196.936984</ele>
        <time>2026-07-06T15:57:00.000Z</time>
      </trkpt>
      <trkpt lat="48.19181" lon="16.34918">
        <ele>196.642176</ele>
        <time>2026-07-06T15:57:06.000Z</time>
      </trkpt>
      <trkpt lat="48.19195" lon="16.34906">
        <ele>196.603839</ele>
        <time>2026-07-06T15:57:10.000Z</time>
      </trkpt>
      <trkpt lat="48.19205" lon="16.34891">
        <ele>196.74131</ele>
        <time>2026-07-06T15:57:14.000Z</time>
      </trkpt>
      <trkpt lat="48.19213" lon="16.34873">
        <ele>196.886882</ele>
        <time>2026-07-06T15:57:19.000Z</time>
      </trkpt>
      <trkpt lat="48.19222" lon="16.34858">
        <ele>197.018765</ele>
        <time>2026-07-06T15:57:23.000Z</time>
      </trkpt>
      <trkpt lat="48.19224" lon="16.34854">
        <ele>197.049498</ele>
        <time>2026-07-06T15:57:24.000Z</time>
      </trkpt>
      <trkpt lat="48.19241" lon="16.34839">
        <ele>197.23569</ele>
        <time>2026-07-06T15:57:30.000Z</time>
      </trkpt>
      <trkpt lat="48.19244" lon="16.34837">
        <ele>197.269901</ele>
        <time>2026-07-06T15:57:31.000Z</time>
      </trkpt>
      <trkpt lat="48.19253" lon="16.34829">
        <ele>197.370278</ele>
        <time>2026-07-06T15:57:34.000Z</time>
      </trkpt>
      <trkpt lat="48.19258" lon="16.34824">
        <ele>197.431953</ele>
        <time>2026-07-06T15:57:36.000Z</time>
      </trkpt>
      <trkpt lat="48.19279" lon="16.34803">
        <ele>197.674316</ele>
        <time>2026-07-06T15:57:43.000Z</time>
      </trkpt>
      <trkpt lat="48.19292" lon="16.34791">
        <ele>197.823717</ele>
        <time>2026-07-06T15:57:46.000Z</time>
      </trkpt>
      <trkpt lat="48.19295" lon="16.34788">
        <ele>197.860654</ele>
        <time>2026-07-06T15:57:48.000Z</time>
      </trkpt>
      <trkpt lat="48.1931" lon="16.34782">
        <ele>198.007191</ele>
        <time>2026-07-06T15:57:52.000Z</time>
      </trkpt>
      <trkpt lat="48.19313" lon="16.34779">
        <ele>198.042232</ele>
        <time>2026-07-06T15:57:53.000Z</time>
      </trkpt>
      <trkpt lat="48.1932" lon="16.34766">
        <ele>198.156681</ele>
        <time>2026-07-06T15:57:56.000Z</time>
      </trkpt>
      <trkpt lat="48.19332" lon="16.34753">
        <ele>198.338668</ele>
        <time>2026-07-06T15:58:00.000Z</time>
      </trkpt>
      <trkpt lat="48.19347" lon="16.34742">
        <ele>198.966873</ele>
        <time>2026-07-06T15:58:05.000Z</time>
      </trkpt>
      <trkpt lat="48.19364" lon="16.34726">
        <ele>199.710685</ele>
        <time>2026-07-06T15:58:11.000Z</time>
      </trkpt>
      <trkpt lat="48.19369" lon="16.34716">
        <ele>200.008802</ele>
        <time>2026-07-06T15:58:15.000Z</time>
      </trkpt>
      <trkpt lat="48.19369" lon="16.34715">
        <ele>200.058336</ele>
        <time>2026-07-06T15:58:16.000Z</time>
      </trkpt>
      <trkpt lat="48.19368" lon="16.34713">
        <ele>200.096365</ele>
        <time>2026-07-06T15:58:17.000Z</time>
      </trkpt>
      <trkpt lat="48.19372" lon="16.34708">
        <ele>200.262513</ele>
        <time>2026-07-06T15:58:21.000Z</time>
      </trkpt>
      <trkpt lat="48.19373" lon="16.34705">
        <ele>200.35202</ele>
        <time>2026-07-06T15:58:22.000Z</time>
      </trkpt>
      <trkpt lat="48.19382" lon="16.34693">
        <ele>200.804394</ele>
        <time>2026-07-06T15:58:26.000Z</time>
      </trkpt>
      <trkpt lat="48.1939" lon="16.34682">
        <ele>201.221865</ele>
        <time>2026-07-06T15:58:30.000Z</time>
      </trkpt>
      <trkpt lat="48.19402" lon="16.34677">
        <ele>201.682735</ele>
        <time>2026-07-06T15:58:34.000Z</time>
      </trkpt>
      <trkpt lat="48.19407" lon="16.34674">
        <ele>201.885268</ele>
        <time>2026-07-06T15:58:36.000Z</time>
      </trkpt>
      <trkpt lat="48.19412" lon="16.34669">
        <ele>202.108487</ele>
        <time>2026-07-06T15:58:38.000Z</time>
      </trkpt>
      <trkpt lat="48.19418" lon="16.34662">
        <ele>202.379091</ele>
        <time>2026-07-06T15:58:41.000Z</time>
      </trkpt>
      <trkpt lat="48.19427" lon="16.34656">
        <ele>202.774279</ele>
        <time>2026-07-06T15:58:45.000Z</time>
      </trkpt>
      <trkpt lat="48.1943" lon="16.34655">
        <ele>202.87144</ele>
        <time>2026-07-06T15:58:46.000Z</time>
      </trkpt>
      <trkpt lat="48.19433" lon="16.34653">
        <ele>202.978816</ele>
        <time>2026-07-06T15:58:47.000Z</time>
      </trkpt>
      <trkpt lat="48.19443" lon="16.34642">
        <ele>203.472734</ele>
        <time>2026-07-06T15:58:52.000Z</time>
      </trkpt>
      <trkpt lat="48.19448" lon="16.34638">
        <ele>203.667328</ele>
        <time>2026-07-06T15:58:54.000Z</time>
      </trkpt>
      <trkpt lat="48.19451" lon="16.34637">
        <ele>203.779068</ele>
        <time>2026-07-06T15:58:55.000Z</time>
      </trkpt>
      <trkpt lat="48.19457" lon="16.34634">
        <ele>204.01493</ele>
        <time>2026-07-06T15:58:57.000Z</time>
      </trkpt>
      <trkpt lat="48.1947" lon="16.3462">
        <ele>204.598679</ele>
        <time>2026-07-06T15:59:02.000Z</time>
      </trkpt>
      <trkpt lat="48.19474" lon="16.34615">
        <ele>204.809417</ele>
        <time>2026-07-06T15:59:04.000Z</time>
      </trkpt>
      <trkpt lat="48.19479" lon="16.34612">
        <ele>205.00294</ele>
        <time>2026-07-06T15:59:06.000Z</time>
      </trkpt>
      <trkpt lat="48.19487" lon="16.34604">
        <ele>205.195351</ele>
        <time>2026-07-06T15:59:09.000Z</time>
      </trkpt>
      <trkpt lat="48.19492" lon="16.34596">
        <ele>205.330783</ele>
        <time>2026-07-06T15:59:12.000Z</time>
      </trkpt>
      <trkpt lat="48.19498" lon="16.34593">
        <ele>205.462005</ele>
        <time>2026-07-06T15:59:15.000Z</time>
      </trkpt>
      <trkpt lat="48.19509" lon="16.34579">
        <ele>205.745144</ele>
        <time>2026-07-06T15:59:20.000Z</time>
      </trkpt>
      <trkpt lat="48.19522" lon="16.34562">
        <ele>206.088788</ele>
        <time>2026-07-06T15:59:27.000Z</time>
      </trkpt>
      <trkpt lat="48.19544" lon="16.34537">
        <ele>206.629491</ele>
        <time>2026-07-06T15:59:36.000Z</time>
      </trkpt>
      <trkpt lat="48.19564" lon="16.34521">
        <ele>207.076852</ele>
        <time>2026-07-06T15:59:42.000Z</time>
      </trkpt>
      <trkpt lat="48.19567" lon="16.34519">
        <ele>207.148467</ele>
        <time>2026-07-06T15:59:43.000Z</time>
      </trkpt>
      <trkpt lat="48.19588" lon="16.345">
        <ele>207.627043</ele>
        <time>2026-07-06T15:59:50.000Z</time>
      </trkpt>
      <trkpt lat="48.1961" lon="16.34486">
        <ele>208.110665</ele>
        <time>2026-07-06T15:59:57.000Z</time>
      </trkpt>
      <trkpt lat="48.19623" lon="16.34469">
        <ele>208.439322</ele>
        <time>2026-07-06T16:00:02.000Z</time>
      </trkpt>
      <trkpt lat="48.19626" lon="16.34467">
        <ele>208.504295</ele>
        <time>2026-07-06T16:00:03.000Z</time>
      </trkpt>
      <trkpt lat="48.19647" lon="16.34454">
        <ele>210.709356</ele>
        <time>2026-07-06T16:00:10.000Z</time>
      </trkpt>
      <trkpt lat="48.1966" lon="16.3444">
        <ele>212.384233</ele>
        <time>2026-07-06T16:00:16.000Z</time>
      </trkpt>
      <trkpt lat="48.19669" lon="16.34433">
        <ele>213.470704</ele>
        <time>2026-07-06T16:00:21.000Z</time>
      </trkpt>
      <trkpt lat="48.19671" lon="16.34431">
        <ele>213.64155</ele>
        <time>2026-07-06T16:00:22.000Z</time>
      </trkpt>
      <trkpt lat="48.19678" lon="16.34429">
        <ele>214.405401</ele>
        <time>2026-07-06T16:00:26.000Z</time>
      </trkpt>
      <trkpt lat="48.19684" lon="16.3443">
        <ele>215.024177</ele>
        <time>2026-07-06T16:00:30.000Z</time>
      </trkpt>
      <trkpt lat="48.19685" lon="16.34429">
        <ele>215.12394</ele>
        <time>2026-07-06T16:00:32.000Z</time>
      </trkpt>
      <trkpt lat="48.19684" lon="16.34429">
        <ele>215.208096</ele>
        <time>2026-07-06T16:00:33.000Z</time>
      </trkpt>
      <trkpt lat="48.19686" lon="16.34431">
        <ele>215.471501</ele>
        <time>2026-07-06T16:00:37.000Z</time>
      </trkpt>
      <trkpt lat="48.1969" lon="16.34433">
        <ele>215.855716</ele>
        <time>2026-07-06T16:00:39.000Z</time>
      </trkpt>
      <trkpt lat="48.19701" lon="16.34428">
        <ele>217.082172</ele>
        <time>2026-07-06T16:00:43.000Z</time>
      </trkpt>
      <trkpt lat="48.1971" lon="16.34422">
        <ele>218.087609</ele>
        <time>2026-07-06T16:00:46.000Z</time>
      </trkpt>
      <trkpt lat="48.19716" lon="16.34418">
        <ele>218.835856</ele>
        <time>2026-07-06T16:00:48.000Z</time>
      </trkpt>
      <trkpt lat="48.19731" lon="16.34412">
        <ele>220.410335</ele>
        <time>2026-07-06T16:00:52.000Z</time>
      </trkpt>
      <trkpt lat="48.1975" lon="16.34404">
        <ele>222.455534</ele>
        <time>2026-07-06T16:00:57.000Z</time>
      </trkpt>
      <trkpt lat="48.19779" lon="16.34382">
        <ele>225.821319</ele>
        <time>2026-07-06T16:01:05.000Z</time>
      </trkpt>
      <trkpt lat="48.19796" lon="16.34369">
        <ele>227.257574</ele>
        <time>2026-07-06T16:01:10.000Z</time>
      </trkpt>
      <trkpt lat="48.19812" lon="16.34363">
        <ele>227.379908</ele>
        <time>2026-07-06T16:01:15.000Z</time>
      </trkpt>
      <trkpt lat="48.1983" lon="16.34352">
        <ele>227.525705</ele>
        <time>2026-07-06T16:01:21.000Z</time>
      </trkpt>
      <trkpt lat="48.19848" lon="16.34347">
        <ele>227.66065</ele>
        <time>2026-07-06T16:01:26.000Z</time>
      </trkpt>
      <trkpt lat="48.19874" lon="16.34335">
        <ele>227.861785</ele>
        <time>2026-07-06T16:01:33.000Z</time>
      </trkpt>
      <trkpt lat="48.19886" lon="16.34329">
        <ele>227.955921</ele>
        <time>2026-07-06T16:01:37.000Z</time>
      </trkpt>
      <trkpt lat="48.19891" lon="16.34326">
        <ele>227.995167</ele>
        <time>2026-07-06T16:01:39.000Z</time>
      </trkpt>
      <trkpt lat="48.19894" lon="16.34326">
        <ele>228.016762</ele>
        <time>2026-07-06T16:01:40.000Z</time>
      </trkpt>
      <trkpt lat="48.199" lon="16.34328">
        <ele>228.065161</ele>
        <time>2026-07-06T16:01:42.000Z</time>
      </trkpt>
      <trkpt lat="48.19902" lon="16.34328">
        <ele>228.080062</ele>
        <time>2026-07-06T16:01:43.000Z</time>
      </trkpt>
      <trkpt lat="48.19902" lon="16.34324">
        <ele>228.098938</ele>
        <time>2026-07-06T16:01:45.000Z</time>
      </trkpt>
      <trkpt lat="48.19901" lon="16.34323">
        <ele>228.109468</ele>
        <time>2026-07-06T16:01:46.000Z</time>
      </trkpt>
      <trkpt lat="48.19888" lon="16.34303">
        <ele>228.250922</ele>
        <time>2026-07-06T16:01:49.000Z</time>
      </trkpt>
      <trkpt lat="48.19891" lon="16.34268">
        <ele>228.426588</ele>
        <time>2026-07-06T16:01:53.000Z</time>
      </trkpt>
      <trkpt lat="48.19893" lon="16.34257">
        <ele>228.47896</ele>
        <time>2026-07-06T16:01:57.000Z</time>
      </trkpt>
      <trkpt lat="48.1989" lon="16.3424">
        <ele>228.34214</ele>
        <time>2026-07-06T16:02:02.000Z</time>
      </trkpt>
      <trkpt lat="48.19887" lon="16.34219">
        <ele>226.767359</ele>
        <time>2026-07-06T16:02:08.000Z</time>
      </trkpt>
      <trkpt lat="48.19884" lon="16.34198">
        <ele>225.137219</ele>
        <time>2026-07-06T16:02:14.000Z</time>
      </trkpt>
      <trkpt lat="48.19883" lon="16.34194">
        <ele>224.846711</ele>
        <time>2026-07-06T16:02:15.000Z</time>
      </trkpt>
      <trkpt lat="48.19881" lon="16.34186">
        <ele>224.219568</ele>
        <time>2026-07-06T16:02:17.000Z</time>
      </trkpt>
      <trkpt lat="48.19879" lon="16.34175">
        <ele>223.392893</ele>
        <time>2026-07-06T16:02:20.000Z</time>
      </trkpt>
      <trkpt lat="48.19879" lon="16.34172">
        <ele>223.15924</ele>
        <time>2026-07-06T16:02:21.000Z</time>
      </trkpt>
      <trkpt lat="48.19874" lon="16.34145">
        <ele>221.062248</ele>
        <time>2026-07-06T16:02:28.000Z</time>
      </trkpt>
      <trkpt lat="48.19873" lon="16.34113">
        <ele>218.683171</ele>
        <time>2026-07-06T16:02:34.000Z</time>
      </trkpt>
      <trkpt lat="48.19868" lon="16.34087">
        <ele>216.698027</ele>
        <time>2026-07-06T16:02:39.000Z</time>
      </trkpt>
      <trkpt lat="48.19862" lon="16.34064">
        <ele>214.846721</ele>
        <time>2026-07-06T16:02:44.000Z</time>
      </trkpt>
      <trkpt lat="48.19858" lon="16.34051">
        <ele>213.841395</ele>
        <time>2026-07-06T16:02:47.000Z</time>
      </trkpt>
      <trkpt lat="48.19857" lon="16.34046">
        <ele>213.460892</ele>
        <time>2026-07-06T16:02:48.000Z</time>
      </trkpt>
      <trkpt lat="48.19856" lon="16.34018">
        <ele>211.331455</ele>
        <time>2026-07-06T16:02:54.000Z</time>
      </trkpt>
      <trkpt lat="48.19854" lon="16.33989">
        <ele>209.221787</ele>
        <time>2026-07-06T16:03:00.000Z</time>
      </trkpt>
      <trkpt lat="48.19849" lon="16.33961">
        <ele>209.197803</ele>
        <time>2026-07-06T16:03:07.000Z</time>
      </trkpt>
      <trkpt lat="48.19846" lon="16.33947">
        <ele>209.641005</ele>
        <time>2026-07-06T16:03:12.000Z</time>
      </trkpt>
      <trkpt lat="48.19845" lon="16.33939">
        <ele>209.876346</ele>
        <time>2026-07-06T16:03:15.000Z</time>
      </trkpt>
      <trkpt lat="48.19844" lon="16.33933">
        <ele>210.051829</ele>
        <time>2026-07-06T16:03:19.000Z</time>
      </trkpt>
      <trkpt lat="48.19844" lon="16.33933">
        <ele>210.051829</ele>
        <time>2026-07-06T16:03:20.000Z</time>
      </trkpt>
      <trkpt lat="48.19839" lon="16.33922">
        <ele>210.456356</ele>
        <time>2026-07-06T16:04:13.000Z</time>
      </trkpt>
      <trkpt lat="48.19841" lon="16.33914">
        <ele>210.690198</ele>
        <time>2026-07-06T16:04:15.000Z</time>
      </trkpt>
      <trkpt lat="48.19847" lon="16.3389">
        <ele>211.450568</ele>
        <time>2026-07-06T16:04:20.000Z</time>
      </trkpt>
      <trkpt lat="48.19853" lon="16.33881">
        <ele>211.807952</ele>
        <time>2026-07-06T16:04:22.000Z</time>
      </trkpt>
      <trkpt lat="48.19859" lon="16.3388">
        <ele>212.10788</ele>
        <time>2026-07-06T16:04:24.000Z</time>
      </trkpt>
      <trkpt lat="48.19879" lon="16.33875">
        <ele>212.998572</ele>
        <time>2026-07-06T16:04:30.000Z</time>
      </trkpt>
      <trkpt lat="48.19896" lon="16.33868">
        <ele>213.792025</ele>
        <time>2026-07-06T16:04:36.000Z</time>
      </trkpt>
      <trkpt lat="48.19915" lon="16.33863">
        <ele>214.649463</ele>
        <time>2026-07-06T16:04:42.000Z</time>
      </trkpt>
      <trkpt lat="48.19948" lon="16.3385">
        <ele>216.151925</ele>
        <time>2026-07-06T16:04:51.000Z</time>
      </trkpt>
      <trkpt lat="48.1997" lon="16.33841">
        <ele>216.241302</ele>
        <time>2026-07-06T16:04:58.000Z</time>
      </trkpt>
      <trkpt lat="48.19977" lon="16.33836">
        <ele>216.037801</ele>
        <time>2026-07-06T16:05:01.000Z</time>
      </trkpt>
      <trkpt lat="48.19978" lon="16.33834">
        <ele>216.001696</ele>
        <time>2026-07-06T16:05:02.000Z</time>
      </trkpt>
      <trkpt lat="48.19976" lon="16.33829">
        <ele>215.910275</ele>
        <time>2026-07-06T16:05:03.000Z</time>
      </trkpt>
      <trkpt lat="48.19971" lon="16.33821">
        <ele>215.72782</ele>
        <time>2026-07-06T16:05:06.000Z</time>
      </trkpt>
      <trkpt lat="48.19968" lon="16.33806">
        <ele>215.464827</ele>
        <time>2026-07-06T16:05:12.000Z</time>
      </trkpt>
      <trkpt lat="48.19968" lon="16.33805">
        <ele>215.439081</ele>
        <time>2026-07-06T16:05:13.000Z</time>
      </trkpt>
      <trkpt lat="48.19969" lon="16.338">
        <ele>215.355638</ele>
        <time>2026-07-06T16:05:16.000Z</time>
      </trkpt>
      <trkpt lat="48.19968" lon="16.33797">
        <ele>215.317093</ele>
        <time>2026-07-06T16:05:17.000Z</time>
      </trkpt>
      <trkpt lat="48.19967" lon="16.33795">
        <ele>215.269245</ele>
        <time>2026-07-06T16:05:18.000Z</time>
      </trkpt>
      <trkpt lat="48.19961" lon="16.33788">
        <ele>215.059261</ele>
        <time>2026-07-06T16:05:22.000Z</time>
      </trkpt>
      <trkpt lat="48.19956" lon="16.33783">
        <ele>214.919243</ele>
        <time>2026-07-06T16:05:25.000Z</time>
      </trkpt>
      <trkpt lat="48.19954" lon="16.33774">
        <ele>214.75632</ele>
        <time>2026-07-06T16:05:27.000Z</time>
      </trkpt>
      <trkpt lat="48.19946" lon="16.33753">
        <ele>214.356302</ele>
        <time>2026-07-06T16:05:32.000Z</time>
      </trkpt>
      <trkpt lat="48.19938" lon="16.33726">
        <ele>213.847579</ele>
        <time>2026-07-06T16:05:37.000Z</time>
      </trkpt>
      <trkpt lat="48.19932" lon="16.33702">
        <ele>213.422217</ele>
        <time>2026-07-06T16:05:42.000Z</time>
      </trkpt>
      <trkpt lat="48.19928" lon="16.33683">
        <ele>213.086254</ele>
        <time>2026-07-06T16:05:49.000Z</time>
      </trkpt>
      <trkpt lat="48.19921" lon="16.33663">
        <ele>212.699062</ele>
        <time>2026-07-06T16:05:53.000Z</time>
      </trkpt>
      <trkpt lat="48.19913" lon="16.33642">
        <ele>212.278669</ele>
        <time>2026-07-06T16:05:57.000Z</time>
      </trkpt>
      <trkpt lat="48.19909" lon="16.33633">
        <ele>212.095825</ele>
        <time>2026-07-06T16:05:59.000Z</time>
      </trkpt>
      <trkpt lat="48.19904" lon="16.33618">
        <ele>212.018959</ele>
        <time>2026-07-06T16:06:02.000Z</time>
      </trkpt>
      <trkpt lat="48.19899" lon="16.33596">
        <ele>212.018959</ele>
        <time>2026-07-06T16:06:06.000Z</time>
      </trkpt>
      <trkpt lat="48.19897" lon="16.33591">
        <ele>212.018959</ele>
        <time>2026-07-06T16:06:07.000Z</time>
      </trkpt>
      <trkpt lat="48.19895" lon="16.33587">
        <ele>212.018959</ele>
        <time>2026-07-06T16:06:08.000Z</time>
      </trkpt>
      <trkpt lat="48.19891" lon="16.33572">
        <ele>212.018959</ele>
        <time>2026-07-06T16:06:10.000Z</time>
      </trkpt>
      <trkpt lat="48.19879" lon="16.33535">
        <ele>212.018959</ele>
        <time>2026-07-06T16:06:17.000Z</time>
      </trkpt>
      <trkpt lat="48.19875" lon="16.33515">
        <ele>212.018959</ele>
        <time>2026-07-06T16:06:21.000Z</time>
      </trkpt>
      <trkpt lat="48.19874" lon="16.33507">
        <ele>212.018959</ele>
        <time>2026-07-06T16:06:23.000Z</time>
      </trkpt>
      <trkpt lat="48.19879" lon="16.33497">
        <ele>212.018959</ele>
        <time>2026-07-06T16:06:27.000Z</time>
      </trkpt>
      <trkpt lat="48.19875" lon="16.33495">
        <ele>212.018959</ele>
        <time>2026-07-06T16:06:29.000Z</time>
      </trkpt>
      <trkpt lat="48.1987" lon="16.33493">
        <ele>212.018959</ele>
        <time>2026-07-06T16:06:31.000Z</time>
      </trkpt>
      <trkpt lat="48.19868" lon="16.33491">
        <ele>212.018959</ele>
        <time>2026-07-06T16:06:32.000Z</time>
      </trkpt>
      <trkpt lat="48.19862" lon="16.33478">
        <ele>212.018959</ele>
        <time>2026-07-06T16:06:35.000Z</time>
      </trkpt>
      <trkpt lat="48.19861" lon="16.33465">
        <ele>212.018959</ele>
        <time>2026-07-06T16:06:37.000Z</time>
      </trkpt>
      <trkpt lat="48.19854" lon="16.33439">
        <ele>212.018959</ele>
        <time>2026-07-06T16:06:42.000Z</time>
      </trkpt>
      <trkpt lat="48.19852" lon="16.33433">
        <ele>212.018959</ele>
        <time>2026-07-06T16:06:43.000Z</time>
      </trkpt>
      <trkpt lat="48.19851" lon="16.3341">
        <ele>212.018959</ele>
        <time>2026-07-06T16:06:48.000Z</time>
      </trkpt>
      <trkpt lat="48.19852" lon="16.33408">
        <ele>212.018959</ele>
        <time>2026-07-06T16:06:49.000Z</time>
      </trkpt>
      <trkpt lat="48.19855" lon="16.33405">
        <ele>212.018959</ele>
        <time>2026-07-06T16:06:51.000Z</time>
      </trkpt>
      <trkpt lat="48.19864" lon="16.33399">
        <ele>212.018959</ele>
        <time>2026-07-06T16:06:55.000Z</time>
      </trkpt>
      <trkpt lat="48.19867" lon="16.33398">
        <ele>212.018959</ele>
        <time>2026-07-06T16:06:56.000Z</time>
      </trkpt>
      <trkpt lat="48.19888" lon="16.33386">
        <ele>212.018959</ele>
        <time>2026-07-06T16:07:02.000Z</time>
      </trkpt>
      <trkpt lat="48.1989" lon="16.33384">
        <ele>212.018959</ele>
        <time>2026-07-06T16:07:03.000Z</time>
      </trkpt>
      <trkpt lat="48.19895" lon="16.33381">
        <ele>212.018959</ele>
        <time>2026-07-06T16:07:05.000Z</time>
      </trkpt>
      <trkpt lat="48.19902" lon="16.33375">
        <ele>212.018959</ele>
        <time>2026-07-06T16:07:08.000Z</time>
      </trkpt>
      <trkpt lat="48.19904" lon="16.33373">
        <ele>212.018959</ele>
        <time>2026-07-06T16:07:09.000Z</time>
      </trkpt>
      <trkpt lat="48.19915" lon="16.33363">
        <ele>212.018959</ele>
        <time>2026-07-06T16:07:14.000Z</time>
      </trkpt>
      <trkpt lat="48.19915" lon="16.33363">
        <ele>212.018959</ele>
        <time>2026-07-06T16:07:16.000Z</time>
      </trkpt>
    </trkseg>
  </trk>
</gpx>